Terminal Aerodrome Forecast
Issued by NWS

Home | Current Version | Previous Version | Graphics & Text | Print | Product List | Glossary On
Versions: 1 2 3 4 5 6 7 8 9 10 11 12 13 14
000
FTUS43 KBIS 260522
TAFMOT
TAF
KMOT 260522Z 2606/2706 35007KT P6SM OVC040
     FM261400 36011KT P6SM BKN110
     FM261800 02013KT P6SM SCT090
     FM270500 04005KT P6SM SCT200=

USA.gov is the U.S. government's official web portal to all federal, state and local government web resources and services.